sensor_id;sensor_type;location;lat;lon;timestamp;P1;durP1;ratioP1;P2;durP2;ratioP2
9409;SDS011;4744;52.576;13.568;2023-09-19T00:01:43;3.75;;;1.95;;
9409;SDS011;4744;52.576;13.568;2023-09-19T00:04:12;3.35;;;1.95;;
9409;SDS011;4744;52.576;13.568;2023-09-19T00:06:39;4.55;;;2.10;;
9409;SDS011;4744;52.576;13.568;2023-09-19T00:09:07;3.38;;;2.05;;
9409;SDS011;4744;52.576;13.568;2023-09-19T00:11:35;3.33;;;2.20;;
9409;SDS011;4744;52.576;13.568;2023-09-19T00:14:02;3.83;;;2.17;;
9409;SDS011;4744;52.576;13.568;2023-09-19T00:16:30;3.13;;;1.90;;
9409;SDS011;4744;52.576;13.568;2023-09-19T00:18:58;4.95;;;2.10;;
9409;SDS011;4744;52.576;13.568;2023-09-19T00:21:29;3.33;;;1.90;;
9409;SDS011;4744;52.576;13.568;2023-09-19T00:23:57;2.30;;;2.03;;
9409;SDS011;4744;52.576;13.568;2023-09-19T00:26:25;3.92;;;2.20;;
9409;SDS011;4744;52.576;13.568;2023-09-19T00:28:55;1.90;;;1.80;;
9409;SDS011;4744;52.576;13.568;2023-09-19T00:31:29;3.13;;;2.30;;
9409;SDS011;4744;52.576;13.568;2023-09-19T00:33:56;2.67;;;2.08;;
9409;SDS011;4744;52.576;13.568;2023-09-19T00:36:25;5.00;;;2.10;;
9409;SDS011;4744;52.576;13.568;2023-09-19T00:38:53;3.55;;;2.00;;
9409;SDS011;4744;52.576;13.568;2023-09-19T00:41:20;3.65;;;2.20;;
9409;SDS011;4744;52.576;13.568;2023-09-19T00:43:47;3.70;;;2.03;;
9409;SDS011;4744;52.576;13.568;2023-09-19T00:46:16;3.17;;;2.10;;
9409;SDS011;4744;52.576;13.568;2023-09-19T00:48:43;2.85;;;2.00;;
9409;SDS011;4744;52.576;13.568;2023-09-19T00:51:11;3.50;;;2.13;;
9409;SDS011;4744;52.576;13.568;2023-09-19T00:53:43;3.33;;;2.08;;
9409;SDS011;4744;52.576;13.568;2023-09-19T00:56:13;2.30;;;2.05;;
9409;SDS011;4744;52.576;13.568;2023-09-19T00:58:43;3.45;;;2.10;;
9409;SDS011;4744;52.576;13.568;2023-09-19T01:01:11;2.92;;;2.20;;
9409;SDS011;4744;52.576;13.568;2023-09-19T01:03:40;2.83;;;1.95;;
9409;SDS011;4744;52.576;13.568;2023-09-19T01:06:07;2.95;;;2.10;;
9409;SDS011;4744;52.576;13.568;2023-09-19T01:08:34;2.40;;;2.03;;
9409;SDS011;4744;52.576;13.568;2023-09-19T01:11:03;5.25;;;2.40;;
9409;SDS011;4744;52.576;13.568;2023-09-19T01:13:42;3.25;;;2.03;;
9409;SDS011;4744;52.576;13.568;2023-09-19T01:16:19;2.00;;;1.90;;
9409;SDS011;4744;52.576;13.568;2023-09-19T01:18:55;2.58;;;2.20;;
9409;SDS011;4744;52.576;13.568;2023-09-19T01:21:48;2.88;;;2.00;;
9409;SDS011;4744;52.576;13.568;2023-09-19T01:27:26;2.83;;;2.05;;
9409;SDS011;4744;52.576;13.568;2023-09-19T01:30:13;4.22;;;2.22;;
9409;SDS011;4744;52.576;13.568;2023-09-19T01:32:42;4.55;;;2.15;;
9409;SDS011;4744;52.576;13.568;2023-09-19T01:35:11;4.10;;;2.15;;
9409;SDS011;4744;52.576;13.568;2023-09-19T01:37:38;3.42;;;2.22;;
9409;SDS011;4744;52.576;13.568;2023-09-19T01:40:09;3.25;;;2.08;;
9409;SDS011;4744;52.576;13.568;2023-09-19T01:42:43;2.80;;;1.85;;
9409;SDS011;4744;52.576;13.568;2023-09-19T01:45:15;2.33;;;2.13;;
9409;SDS011;4744;52.576;13.568;2023-09-19T01:47:50;3.20;;;1.98;;
9409;SDS011;4744;52.576;13.568;2023-09-19T01:50:23;2.50;;;1.77;;
9409;SDS011;4744;52.576;13.568;2023-09-19T01:52:57;3.65;;;2.20;;
9409;SDS011;4744;52.576;13.568;2023-09-19T01:55:30;5.57;;;2.30;;
9409;SDS011;4744;52.576;13.568;2023-09-19T01:58:04;3.22;;;2.20;;
9409;SDS011;4744;52.576;13.568;2023-09-19T02:00:36;2.30;;;2.10;;
9409;SDS011;4744;52.576;13.568;2023-09-19T02:03:07;2.60;;;2.10;;
9409;SDS011;4744;52.576;13.568;2023-09-19T02:05:35;2.92;;;2.10;;
9409;SDS011;4744;52.576;13.568;2023-09-19T02:08:02;2.85;;;2.38;;
9409;SDS011;4744;52.576;13.568;2023-09-19T02:10:31;4.18;;;2.20;;
9409;SDS011;4744;52.576;13.568;2023-09-19T02:12:59;4.28;;;2.47;;
9409;SDS011;4744;52.576;13.568;2023-09-19T02:15:29;4.28;;;2.10;;
9409;SDS011;4744;52.576;13.568;2023-09-19T02:18:00;2.70;;;2.00;;
9409;SDS011;4744;52.576;13.568;2023-09-19T02:20:28;3.38;;;2.10;;
9409;SDS011;4744;52.576;13.568;2023-09-19T02:22:57;2.42;;;2.20;;
9409;SDS011;4744;52.576;13.568;2023-09-19T02:25:24;3.55;;;2.30;;
9409;SDS011;4744;52.576;13.568;2023-09-19T02:27:52;3.33;;;2.15;;
9409;SDS011;4744;52.576;13.568;2023-09-19T02:30:19;3.60;;;2.20;;
9409;SDS011;4744;52.576;13.568;2023-09-19T02:32:50;3.00;;;2.28;;
9409;SDS011;4744;52.576;13.568;2023-09-19T02:35:20;3.17;;;2.35;;
9409;SDS011;4744;52.576;13.568;2023-09-19T02:37:47;2.15;;;1.95;;
9409;SDS011;4744;52.576;13.568;2023-09-19T02:40:15;4.15;;;1.92;;
9409;SDS011;4744;52.576;13.568;2023-09-19T02:42:45;2.50;;;2.03;;
9409;SDS011;4744;52.576;13.568;2023-09-19T02:45:15;2.30;;;2.10;;
9409;SDS011;4744;52.576;13.568;2023-09-19T02:47:43;2.90;;;2.22;;
9409;SDS011;4744;52.576;13.568;2023-09-19T02:50:11;2.33;;;1.95;;
9409;SDS011;4744;52.576;13.568;2023-09-19T02:52:42;5.40;;;2.40;;
9409;SDS011;4744;52.576;13.568;2023-09-19T02:55:10;2.38;;;1.95;;
9409;SDS011;4744;52.576;13.568;2023-09-19T02:57:39;2.42;;;1.65;;
9409;SDS011;4744;52.576;13.568;2023-09-19T03:00:09;2.97;;;1.90;;
9409;SDS011;4744;52.576;13.568;2023-09-19T03:02:38;4.28;;;2.03;;
9409;SDS011;4744;52.576;13.568;2023-09-19T03:05:06;2.30;;;1.90;;
9409;SDS011;4744;52.576;13.568;2023-09-19T03:07:36;2.50;;;2.03;;
9409;SDS011;4744;52.576;13.568;2023-09-19T03:10:05;3.03;;;2.10;;
9409;SDS011;4744;52.576;13.568;2023-09-19T03:12:33;2.40;;;2.03;;
9409;SDS011;4744;52.576;13.568;2023-09-19T03:15:00;3.10;;;2.00;;
9409;SDS011;4744;52.576;13.568;2023-09-19T03:17:29;2.50;;;1.95;;
9409;SDS011;4744;52.576;13.568;2023-09-19T03:19:56;2.10;;;1.88;;
9409;SDS011;4744;52.576;13.568;2023-09-19T03:22:23;3.20;;;2.00;;
9409;SDS011;4744;52.576;13.568;2023-09-19T03:24:50;2.25;;;1.98;;
9409;SDS011;4744;52.576;13.568;2023-09-19T03:27:19;2.15;;;1.95;;
9409;SDS011;4744;52.576;13.568;2023-09-19T03:29:46;3.60;;;2.03;;
9409;SDS011;4744;52.576;13.568;2023-09-19T03:32:13;2.13;;;1.88;;
9409;SDS011;4744;52.576;13.568;2023-09-19T03:34:40;1.90;;;1.80;;
9409;SDS011;4744;52.576;13.568;2023-09-19T03:37:08;1.77;;;1.67;;
9409;SDS011;4744;52.576;13.568;2023-09-19T03:39:35;1.98;;;1.80;;
9409;SDS011;4744;52.576;13.568;2023-09-19T03:42:03;2.70;;;1.67;;
9409;SDS011;4744;52.576;13.568;2023-09-19T03:44:31;2.47;;;1.67;;
9409;SDS011;4744;52.576;13.568;2023-09-19T03:46:58;2.50;;;1.30;;
9409;SDS011;4744;52.576;13.568;2023-09-19T03:49:25;1.65;;;1.33;;
9409;SDS011;4744;52.576;13.568;2023-09-19T03:51:52;1.60;;;1.40;;
9409;SDS011;4744;52.576;13.568;2023-09-19T03:54:19;1.65;;;1.17;;
9409;SDS011;4744;52.576;13.568;2023-09-19T03:56:45;3.20;;;1.45;;
9409;SDS011;4744;52.576;13.568;2023-09-19T03:59:12;1.55;;;1.30;;
9409;SDS011;4744;52.576;13.568;2023-09-19T04:01:41;1.75;;;1.60;;
9409;SDS011;4744;52.576;13.568;2023-09-19T04:04:08;1.08;;;1.08;;
9409;SDS011;4744;52.576;13.568;2023-09-19T04:06:35;3.15;;;1.70;;
9409;SDS011;4744;52.576;13.568;2023-09-19T04:09:02;1.85;;;1.30;;
9409;SDS011;4744;52.576;13.568;2023-09-19T04:11:31;1.75;;;1.63;;
9409;SDS011;4744;52.576;13.568;2023-09-19T04:13:59;3.33;;;1.40;;
9409;SDS011;4744;52.576;13.568;2023-09-19T04:16:28;1.95;;;1.60;;
9409;SDS011;4744;52.576;13.568;2023-09-19T04:18:57;1.85;;;1.20;;
9409;SDS011;4744;52.576;13.568;2023-09-19T04:21:23;1.27;;;1.27;;
9409;SDS011;4744;52.576;13.568;2023-09-19T04:23:50;1.95;;;1.35;;
9409;SDS011;4744;52.576;13.568;2023-09-19T04:26:17;1.73;;;1.60;;
9409;SDS011;4744;52.576;13.568;2023-09-19T04:28:44;2.67;;;1.50;;
9409;SDS011;4744;52.576;13.568;2023-09-19T04:31:11;2.55;;;1.52;;
9409;SDS011;4744;52.576;13.568;2023-09-19T04:33:39;1.55;;;1.40;;
9409;SDS011;4744;52.576;13.568;2023-09-19T04:36:07;1.60;;;1.50;;
9409;SDS011;4744;52.576;13.568;2023-09-19T04:38:35;2.97;;;1.60;;
9409;SDS011;4744;52.576;13.568;2023-09-19T04:41:01;2.00;;;1.58;;
9409;SDS011;4744;52.576;13.568;2023-09-19T04:43:29;2.05;;;1.48;;
9409;SDS011;4744;52.576;13.568;2023-09-19T04:45:55;2.70;;;1.50;;
9409;SDS011;4744;52.576;13.568;2023-09-19T04:48:25;1.60;;;1.50;;
9409;SDS011;4744;52.576;13.568;2023-09-19T04:50:54;2.53;;;1.70;;
9409;SDS011;4744;52.576;13.568;2023-09-19T04:53:22;4.20;;;1.63;;
9409;SDS011;4744;52.576;13.568;2023-09-19T04:55:50;2.50;;;1.77;;
9409;SDS011;4744;52.576;13.568;2023-09-19T04:58:17;2.75;;;1.42;;
9409;SDS011;4744;52.576;13.568;2023-09-19T05:00:45;2.72;;;1.50;;
9409;SDS011;4744;52.576;13.568;2023-09-19T05:03:12;2.47;;;1.77;;
9409;SDS011;4744;52.576;13.568;2023-09-19T05:05:39;2.33;;;1.70;;
9409;SDS011;4744;52.576;13.568;2023-09-19T05:08:07;2.65;;;1.92;;
9409;SDS011;4744;52.576;13.568;2023-09-19T05:10:36;2.35;;;1.70;;
9409;SDS011;4744;52.576;13.568;2023-09-19T05:13:04;2.42;;;1.83;;
9409;SDS011;4744;52.576;13.568;2023-09-19T05:15:32;4.38;;;1.80;;
9409;SDS011;4744;52.576;13.568;2023-09-19T05:18:00;2.63;;;1.88;;
9409;SDS011;4744;52.576;13.568;2023-09-19T05:20:28;1.80;;;1.70;;
9409;SDS011;4744;52.576;13.568;2023-09-19T05:22:58;1.67;;;1.58;;
9409;SDS011;4744;52.576;13.568;2023-09-19T05:25:27;1.50;;;1.40;;
9409;SDS011;4744;52.576;13.568;2023-09-19T05:27:57;1.90;;;1.60;;
9409;SDS011;4744;52.576;13.568;2023-09-19T05:30:25;1.75;;;1.65;;
9409;SDS011;4744;52.576;13.568;2023-09-19T05:32:54;2.15;;;1.80;;
9409;SDS011;4744;52.576;13.568;2023-09-19T05:35:22;3.33;;;1.80;;
9409;SDS011;4744;52.576;13.568;2023-09-19T05:37:50;2.53;;;1.60;;
9409;SDS011;4744;52.576;13.568;2023-09-19T05:40:17;1.80;;;1.50;;
9409;SDS011;4744;52.576;13.568;2023-09-19T05:42:44;2.03;;;1.83;;
9409;SDS011;4744;52.576;13.568;2023-09-19T05:45:13;2.65;;;1.38;;
9409;SDS011;4744;52.576;13.568;2023-09-19T05:47:44;3.15;;;1.83;;
9409;SDS011;4744;52.576;13.568;2023-09-19T05:50:12;1.95;;;1.70;;
9409;SDS011;4744;52.576;13.568;2023-09-19T05:52:40;1.85;;;1.70;;
9409;SDS011;4744;52.576;13.568;2023-09-19T05:55:08;2.35;;;1.60;;
9409;SDS011;4744;52.576;13.568;2023-09-19T05:57:35;2.92;;;1.70;;
9409;SDS011;4744;52.576;13.568;2023-09-19T06:00:04;1.70;;;1.60;;
9409;SDS011;4744;52.576;13.568;2023-09-19T06:02:35;3.45;;;1.67;;
9409;SDS011;4744;52.576;13.568;2023-09-19T06:05:03;1.90;;;1.70;;
9409;SDS011;4744;52.576;13.568;2023-09-19T06:07:31;3.92;;;1.98;;
9409;SDS011;4744;52.576;13.568;2023-09-19T06:10:01;2.53;;;1.63;;
9409;SDS011;4744;52.576;13.568;2023-09-19T06:12:30;2.08;;;1.75;;
9409;SDS011;4744;52.576;13.568;2023-09-19T06:14:58;1.92;;;1.65;;
9409;SDS011;4744;52.576;13.568;2023-09-19T06:17:25;2.70;;;1.83;;
9409;SDS011;4744;52.576;13.568;2023-09-19T06:19:54;3.10;;;1.60;;
9409;SDS011;4744;52.576;13.568;2023-09-19T06:22:21;1.65;;;1.55;;
9409;SDS011;4744;52.576;13.568;2023-09-19T06:24:49;2.03;;;1.80;;
9409;SDS011;4744;52.576;13.568;2023-09-19T06:27:16;2.45;;;1.60;;
9409;SDS011;4744;52.576;13.568;2023-09-19T06:29:43;2.45;;;1.70;;
9409;SDS011;4744;52.576;13.568;2023-09-19T06:32:10;3.85;;;1.80;;
9409;SDS011;4744;52.576;13.568;2023-09-19T06:34:37;3.60;;;1.60;;
9409;SDS011;4744;52.576;13.568;2023-09-19T06:37:10;3.50;;;2.08;;
9409;SDS011;4744;52.576;13.568;2023-09-19T06:39:37;4.63;;;1.90;;
9409;SDS011;4744;52.576;13.568;2023-09-19T06:42:04;4.80;;;1.90;;
9409;SDS011;4744;52.576;13.568;2023-09-19T06:44:31;2.10;;;1.60;;
9409;SDS011;4744;52.576;13.568;2023-09-19T06:46:58;2.78;;;1.92;;
9409;SDS011;4744;52.576;13.568;2023-09-19T06:49:24;3.55;;;1.98;;
9409;SDS011;4744;52.576;13.568;2023-09-19T06:51:53;3.88;;;1.90;;
9409;SDS011;4744;52.576;13.568;2023-09-19T06:54:23;4.60;;;2.20;;
9409;SDS011;4744;52.576;13.568;2023-09-19T06:56:50;4.18;;;2.17;;
9409;SDS011;4744;52.576;13.568;2023-09-19T06:59:17;3.00;;;1.83;;
9409;SDS011;4744;52.576;13.568;2023-09-19T07:01:44;2.83;;;1.90;;
9409;SDS011;4744;52.576;13.568;2023-09-19T07:04:12;3.22;;;1.80;;
9409;SDS011;4744;52.576;13.568;2023-09-19T07:06:39;3.42;;;1.90;;
9409;SDS011;4744;52.576;13.568;2023-09-19T07:09:06;6.05;;;1.98;;
9409;SDS011;4744;52.576;13.568;2023-09-19T07:11:34;3.00;;;2.05;;
9409;SDS011;4744;52.576;13.568;2023-09-19T07:14:02;2.55;;;1.80;;
9409;SDS011;4744;52.576;13.568;2023-09-19T07:16:30;4.07;;;2.10;;
9409;SDS011;4744;52.576;13.568;2023-09-19T07:18:57;4.70;;;2.28;;
9409;SDS011;4744;52.576;13.568;2023-09-19T07:21:24;4.80;;;1.98;;
9409;SDS011;4744;52.576;13.568;2023-09-19T07:23:51;5.15;;;2.05;;
9409;SDS011;4744;52.576;13.568;2023-09-19T07:26:18;1.88;;;1.73;;
9409;SDS011;4744;52.576;13.568;2023-09-19T07:28:46;5.03;;;2.40;;
9409;SDS011;4744;52.576;13.568;2023-09-19T07:31:13;3.25;;;1.90;;
9409;SDS011;4744;52.576;13.568;2023-09-19T07:33:40;2.90;;;1.90;;
9409;SDS011;4744;52.576;13.568;2023-09-19T07:36:09;5.13;;;2.00;;
9409;SDS011;4744;52.576;13.568;2023-09-19T07:38:38;3.13;;;1.80;;
9409;SDS011;4744;52.576;13.568;2023-09-19T07:41:06;4.10;;;1.90;;
9409;SDS011;4744;52.576;13.568;2023-09-19T07:43:34;2.67;;;1.75;;
9409;SDS011;4744;52.576;13.568;2023-09-19T07:46:05;2.13;;;1.80;;
9409;SDS011;4744;52.576;13.568;2023-09-19T07:48:34;1.77;;;1.50;;
9409;SDS011;4744;52.576;13.568;2023-09-19T07:51:04;4.15;;;1.63;;
9409;SDS011;4744;52.576;13.568;2023-09-19T07:53:32;2.58;;;1.77;;
9409;SDS011;4744;52.576;13.568;2023-09-19T07:56:03;2.50;;;1.55;;
9409;SDS011;4744;52.576;13.568;2023-09-19T07:58:31;3.63;;;1.90;;
9409;SDS011;4744;52.576;13.568;2023-09-19T08:01:02;1.77;;;1.65;;
9409;SDS011;4744;52.576;13.568;2023-09-19T08:03:31;5.47;;;1.75;;
9409;SDS011;4744;52.576;13.568;2023-09-19T08:05:58;3.47;;;2.00;;
9409;SDS011;4744;52.576;13.568;2023-09-19T08:08:25;3.58;;;1.95;;
9409;SDS011;4744;52.576;13.568;2023-09-19T08:10:52;2.00;;;1.80;;
9409;SDS011;4744;52.576;13.568;2023-09-19T08:13:21;3.75;;;1.85;;
9409;SDS011;4744;52.576;13.568;2023-09-19T08:15:48;2.03;;;1.80;;
9409;SDS011;4744;52.576;13.568;2023-09-19T08:18:16;2.80;;;1.90;;
9409;SDS011;4744;52.576;13.568;2023-09-19T08:20:48;2.80;;;1.90;;
9409;SDS011;4744;52.576;13.568;2023-09-19T08:23:16;6.03;;;2.15;;
9409;SDS011;4744;52.576;13.568;2023-09-19T08:25:45;3.40;;;2.10;;
9409;SDS011;4744;52.576;13.568;2023-09-19T08:28:12;2.30;;;1.85;;
9409;SDS011;4744;52.576;13.568;2023-09-19T08:30:44;2.05;;;1.95;;
9409;SDS011;4744;52.576;13.568;2023-09-19T08:33:11;3.25;;;1.77;;
9409;SDS011;4744;52.576;13.568;2023-09-19T08:35:40;3.20;;;2.20;;
9409;SDS011;4744;52.576;13.568;2023-09-19T08:38:09;3.05;;;2.15;;
9409;SDS011;4744;52.576;13.568;2023-09-19T08:40:37;3.08;;;1.90;;
9409;SDS011;4744;52.576;13.568;2023-09-19T08:43:05;3.80;;;2.00;;
9409;SDS011;4744;52.576;13.568;2023-09-19T08:45:32;4.38;;;1.90;;
9409;SDS011;4744;52.576;13.568;2023-09-19T08:48:02;3.42;;;2.00;;
9409;SDS011;4744;52.576;13.568;2023-09-19T08:50:43;4.57;;;2.00;;
9409;SDS011;4744;52.576;13.568;2023-09-19T08:53:21;5.68;;;2.28;;
9409;SDS011;4744;52.576;13.568;2023-09-19T08:55:54;7.43;;;2.38;;
9409;SDS011;4744;52.576;13.568;2023-09-19T08:58:22;2.58;;;2.08;;
9409;SDS011;4744;52.576;13.568;2023-09-19T09:00:54;4.88;;;2.35;;
9409;SDS011;4744;52.576;13.568;2023-09-19T09:03:22;4.32;;;2.35;;
9409;SDS011;4744;52.576;13.568;2023-09-19T09:05:50;3.22;;;2.25;;
9409;SDS011;4744;52.576;13.568;2023-09-19T09:08:19;3.40;;;2.25;;
9409;SDS011;4744;52.576;13.568;2023-09-19T09:10:47;4.28;;;2.40;;
9409;SDS011;4744;52.576;13.568;2023-09-19T09:13:15;3.15;;;1.67;;
9409;SDS011;4744;52.576;13.568;2023-09-19T09:15:43;2.85;;;1.92;;
9409;SDS011;4744;52.576;13.568;2023-09-19T09:18:10;4.35;;;1.90;;
9409;SDS011;4744;52.576;13.568;2023-09-19T09:20:38;3.15;;;2.20;;
9409;SDS011;4744;52.576;13.568;2023-09-19T09:23:06;6.25;;;1.90;;
9409;SDS011;4744;52.576;13.568;2023-09-19T09:25:50;4.45;;;2.17;;
9409;SDS011;4744;52.576;13.568;2023-09-19T09:28:21;4.80;;;2.10;;
9409;SDS011;4744;52.576;13.568;2023-09-19T09:30:49;3.10;;;2.00;;
9409;SDS011;4744;52.576;13.568;2023-09-19T09:33:17;2.35;;;1.83;;
9409;SDS011;4744;52.576;13.568;2023-09-19T09:35:51;3.20;;;2.20;;
9409;SDS011;4744;52.576;13.568;2023-09-19T09:38:22;2.05;;;1.60;;
9409;SDS011;4744;52.576;13.568;2023-09-19T09:40:54;5.45;;;2.13;;
9409;SDS011;4744;52.576;13.568;2023-09-19T09:43:30;3.63;;;2.20;;
9409;SDS011;4744;52.576;13.568;2023-09-19T09:46:08;4.35;;;1.95;;
9409;SDS011;4744;52.576;13.568;2023-09-19T09:48:55;2.65;;;2.30;;
9409;SDS011;4744;52.576;13.568;2023-09-19T09:51:37;3.65;;;2.15;;
9409;SDS011;4744;52.576;13.568;2023-09-19T09:54:11;5.63;;;2.22;;
9409;SDS011;4744;52.576;13.568;2023-09-19T09:56:53;3.88;;;1.95;;
9409;SDS011;4744;52.576;13.568;2023-09-19T09:59:24;2.55;;;2.00;;
9409;SDS011;4744;52.576;13.568;2023-09-19T10:02:12;2.58;;;2.03;;
9409;SDS011;4744;52.576;13.568;2023-09-19T10:04:47;3.13;;;2.60;;
9409;SDS011;4744;52.576;13.568;2023-09-19T10:07:33;3.20;;;2.30;;
9409;SDS011;4744;52.576;13.568;2023-09-19T10:10:03;3.63;;;2.13;;
9409;SDS011;4744;52.576;13.568;2023-09-19T10:12:42;4.57;;;2.53;;
9409;SDS011;4744;52.576;13.568;2023-09-19T10:15:14;5.15;;;2.22;;
9409;SDS011;4744;52.576;13.568;2023-09-19T10:17:45;2.88;;;2.00;;
9409;SDS011;4744;52.576;13.568;2023-09-19T10:20:13;4.55;;;2.60;;
9409;SDS011;4744;52.576;13.568;2023-09-19T10:23:04;7.88;;;2.50;;
9409;SDS011;4744;52.576;13.568;2023-09-19T10:25:36;5.53;;;2.50;;
9409;SDS011;4744;52.576;13.568;2023-09-19T10:28:06;4.05;;;2.60;;
9409;SDS011;4744;52.576;13.568;2023-09-19T10:30:36;5.00;;;2.40;;
9409;SDS011;4744;52.576;13.568;2023-09-19T10:33:09;3.85;;;2.70;;
9409;SDS011;4744;52.576;13.568;2023-09-19T10:35:37;4.53;;;2.55;;
9409;SDS011;4744;52.576;13.568;2023-09-19T10:38:06;2.45;;;2.10;;
9409;SDS011;4744;52.576;13.568;2023-09-19T10:40:35;4.10;;;2.50;;
9409;SDS011;4744;52.576;13.568;2023-09-19T10:43:11;3.65;;;2.40;;
9409;SDS011;4744;52.576;13.568;2023-09-19T10:45:39;5.03;;;2.33;;
9409;SDS011;4744;52.576;13.568;2023-09-19T10:48:07;4.68;;;2.40;;
9409;SDS011;4744;52.576;13.568;2023-09-19T10:50:35;3.35;;;1.98;;
9409;SDS011;4744;52.576;13.568;2023-09-19T10:53:10;5.50;;;2.63;;
9409;SDS011;4744;52.576;13.568;2023-09-19T10:55:38;2.97;;;2.33;;
9409;SDS011;4744;52.576;13.568;2023-09-19T10:58:05;6.10;;;2.30;;
9409;SDS011;4744;52.576;13.568;2023-09-19T11:00:54;9.38;;;2.20;;
9409;SDS011;4744;52.576;13.568;2023-09-19T11:03:22;3.58;;;2.20;;
9409;SDS011;4744;52.576;13.568;2023-09-19T11:06:02;3.67;;;1.90;;
9409;SDS011;4744;52.576;13.568;2023-09-19T11:11:39;3.45;;;2.05;;
9409;SDS011;4744;52.576;13.568;2023-09-19T11:14:13;3.45;;;2.50;;
9409;SDS011;4744;52.576;13.568;2023-09-19T11:16:43;4.32;;;2.20;;
9409;SDS011;4744;52.576;13.568;2023-09-19T11:25:51;4.43;;;2.17;;
9409;SDS011;4744;52.576;13.568;2023-09-19T11:28:32;6.45;;;2.55;;
9409;SDS011;4744;52.576;13.568;2023-09-19T11:40:27;8.25;;;2.45;;
9409;SDS011;4744;52.576;13.568;2023-09-19T11:42:55;5.75;;;2.40;;
9409;SDS011;4744;52.576;13.568;2023-09-19T11:48:28;6.82;;;2.35;;
9409;SDS011;4744;52.576;13.568;2023-09-19T11:50:57;3.03;;;2.00;;
9409;SDS011;4744;52.576;13.568;2023-09-19T11:53:30;5.60;;;2.05;;
9409;SDS011;4744;52.576;13.568;2023-09-19T11:56:01;3.15;;;2.08;;
9409;SDS011;4744;52.576;13.568;2023-09-19T11:58:32;2.83;;;1.95;;
9409;SDS011;4744;52.576;13.568;2023-09-19T12:00:59;3.92;;;2.00;;
9409;SDS011;4744;52.576;13.568;2023-09-19T12:03:34;3.08;;;1.90;;
9409;SDS011;4744;52.576;13.568;2023-09-19T12:06:10;3.47;;;1.90;;
9409;SDS011;4744;52.576;13.568;2023-09-19T12:08:39;4.18;;;2.00;;
9409;SDS011;4744;52.576;13.568;2023-09-19T12:11:11;6.05;;;2.30;;
9409;SDS011;4744;52.576;13.568;2023-09-19T12:13:43;6.28;;;2.00;;
9409;SDS011;4744;52.576;13.568;2023-09-19T12:16:12;3.67;;;2.05;;
9409;SDS011;4744;52.576;13.568;2023-09-19T12:18:42;4.70;;;2.03;;
9409;SDS011;4744;52.576;13.568;2023-09-19T12:21:21;3.33;;;2.20;;
9409;SDS011;4744;52.576;13.568;2023-09-19T12:24:05;4.45;;;2.03;;
9409;SDS011;4744;52.576;13.568;2023-09-19T12:26:39;3.83;;;2.03;;
9409;SDS011;4744;52.576;13.568;2023-09-19T12:29:15;4.75;;;2.03;;
9409;SDS011;4744;52.576;13.568;2023-09-19T12:31:49;3.15;;;2.13;;
9409;SDS011;4744;52.576;13.568;2023-09-19T12:34:23;6.03;;;2.40;;
9409;SDS011;4744;52.576;13.568;2023-09-19T12:37:05;6.93;;;2.08;;
9409;SDS011;4744;52.576;13.568;2023-09-19T12:39:41;4.45;;;2.20;;
9409;SDS011;4744;52.576;13.568;2023-09-19T12:42:13;3.65;;;1.95;;
9409;SDS011;4744;52.576;13.568;2023-09-19T12:44:42;4.53;;;2.10;;
9409;SDS011;4744;52.576;13.568;2023-09-19T12:47:11;3.28;;;1.70;;
9409;SDS011;4744;52.576;13.568;2023-09-19T12:52:44;5.18;;;1.60;;
9409;SDS011;4744;52.576;13.568;2023-09-19T12:55:20;2.40;;;1.65;;
9409;SDS011;4744;52.576;13.568;2023-09-19T12:58:11;4.82;;;1.80;;
9409;SDS011;4744;52.576;13.568;2023-09-19T13:00:40;5.22;;;1.92;;
9409;SDS011;4744;52.576;13.568;2023-09-19T13:03:13;3.72;;;1.83;;
9409;SDS011;4744;52.576;13.568;2023-09-19T13:05:49;6.68;;;1.95;;
9409;SDS011;4744;52.576;13.568;2023-09-19T13:08:21;3.20;;;1.60;;
9409;SDS011;4744;52.576;13.568;2023-09-19T13:11:07;4.18;;;1.83;;
9409;SDS011;4744;52.576;13.568;2023-09-19T13:13:38;4.65;;;1.60;;
9409;SDS011;4744;52.576;13.568;2023-09-19T13:16:06;2.75;;;1.45;;
9409;SDS011;4744;52.576;13.568;2023-09-19T13:18:46;2.15;;;1.40;;
9409;SDS011;4744;52.576;13.568;2023-09-19T13:21:27;3.15;;;1.77;;
9409;SDS011;4744;52.576;13.568;2023-09-19T13:26:46;2.55;;;1.42;;
9409;SDS011;4744;52.576;13.568;2023-09-19T13:29:13;4.00;;;2.28;;
9409;SDS011;4744;52.576;13.568;2023-09-19T13:31:45;3.47;;;1.65;;
9409;SDS011;4744;52.576;13.568;2023-09-19T13:34:12;2.95;;;1.67;;
9409;SDS011;4744;52.576;13.568;2023-09-19T13:36:42;4.90;;;1.85;;
9409;SDS011;4744;52.576;13.568;2023-09-19T13:39:09;1.55;;;1.45;;
9409;SDS011;4744;52.576;13.568;2023-09-19T13:41:38;2.67;;;1.67;;
9409;SDS011;4744;52.576;13.568;2023-09-19T13:44:05;2.40;;;1.42;;
9409;SDS011;4744;52.576;13.568;2023-09-19T13:46:33;4.65;;;1.65;;
9409;SDS011;4744;52.576;13.568;2023-09-19T13:49:00;3.55;;;1.90;;
9409;SDS011;4744;52.576;13.568;2023-09-19T13:51:28;2.10;;;1.52;;
9409;SDS011;4744;52.576;13.568;2023-09-19T13:53:58;5.65;;;2.00;;
9409;SDS011;4744;52.576;13.568;2023-09-19T13:56:25;6.18;;;1.80;;
9409;SDS011;4744;52.576;13.568;2023-09-19T13:58:53;4.68;;;1.55;;
9409;SDS011;4744;52.576;13.568;2023-09-19T14:01:20;2.17;;;1.63;;
9409;SDS011;4744;52.576;13.568;2023-09-19T14:03:46;2.35;;;1.70;;
9409;SDS011;4744;52.576;13.568;2023-09-19T14:06:14;3.97;;;1.80;;
9409;SDS011;4744;52.576;13.568;2023-09-19T14:08:41;2.58;;;1.70;;
9409;SDS011;4744;52.576;13.568;2023-09-19T14:11:11;3.80;;;1.63;;
9409;SDS011;4744;52.576;13.568;2023-09-19T14:13:39;3.15;;;1.65;;
9409;SDS011;4744;52.576;13.568;2023-09-19T14:16:06;4.85;;;1.90;;
9409;SDS011;4744;52.576;13.568;2023-09-19T14:18:34;3.13;;;2.20;;
9409;SDS011;4744;52.576;13.568;2023-09-19T14:21:03;3.28;;;1.63;;
9409;SDS011;4744;52.576;13.568;2023-09-19T14:23:34;4.63;;;2.03;;
9409;SDS011;4744;52.576;13.568;2023-09-19T14:26:01;4.20;;;1.73;;
9409;SDS011;4744;52.576;13.568;2023-09-19T14:28:31;4.65;;;1.73;;
9409;SDS011;4744;52.576;13.568;2023-09-19T14:31:03;3.60;;;1.98;;
9409;SDS011;4744;52.576;13.568;2023-09-19T14:33:31;3.03;;;1.80;;
9409;SDS011;4744;52.576;13.568;2023-09-19T14:35:58;4.97;;;1.80;;
9409;SDS011;4744;52.576;13.568;2023-09-19T14:38:24;4.43;;;1.85;;
9409;SDS011;4744;52.576;13.568;2023-09-19T14:40:58;5.57;;;1.55;;
9409;SDS011;4744;52.576;13.568;2023-09-19T14:43:26;3.60;;;2.03;;
9409;SDS011;4744;52.576;13.568;2023-09-19T14:45:55;2.40;;;1.50;;
9409;SDS011;4744;52.576;13.568;2023-09-19T14:48:23;3.20;;;2.00;;
9409;SDS011;4744;52.576;13.568;2023-09-19T14:50:50;2.15;;;1.63;;
9409;SDS011;4744;52.576;13.568;2023-09-19T14:53:17;4.03;;;1.70;;
9409;SDS011;4744;52.576;13.568;2023-09-19T14:55:45;4.55;;;1.67;;
9409;SDS011;4744;52.576;13.568;2023-09-19T14:58:12;2.53;;;1.80;;
9409;SDS011;4744;52.576;13.568;2023-09-19T15:00:39;1.77;;;1.45;;
9409;SDS011;4744;52.576;13.568;2023-09-19T15:03:07;2.65;;;1.60;;
9409;SDS011;4744;52.576;13.568;2023-09-19T15:05:34;4.00;;;1.98;;
9409;SDS011;4744;52.576;13.568;2023-09-19T15:08:01;2.45;;;1.70;;
9409;SDS011;4744;52.576;13.568;2023-09-19T15:10:28;2.15;;;1.55;;
9409;SDS011;4744;52.576;13.568;2023-09-19T15:12:56;4.13;;;1.52;;
9409;SDS011;4744;52.576;13.568;2023-09-19T15:15:22;4.95;;;1.73;;
9409;SDS011;4744;52.576;13.568;2023-09-19T15:17:49;4.22;;;2.00;;
9409;SDS011;4744;52.576;13.568;2023-09-19T15:20:18;2.33;;;1.75;;
9409;SDS011;4744;52.576;13.568;2023-09-19T15:22:44;7.07;;;2.10;;
9409;SDS011;4744;52.576;13.568;2023-09-19T15:25:13;2.50;;;1.58;;
9409;SDS011;4744;52.576;13.568;2023-09-19T15:27:40;2.50;;;1.67;;
9409;SDS011;4744;52.576;13.568;2023-09-19T15:30:09;2.15;;;1.75;;
9409;SDS011;4744;52.576;13.568;2023-09-19T15:32:36;1.80;;;1.67;;
9409;SDS011;4744;52.576;13.568;2023-09-19T15:35:04;4.80;;;2.20;;
9409;SDS011;4744;52.576;13.568;2023-09-19T15:37:32;2.22;;;1.70;;
9409;SDS011;4744;52.576;13.568;2023-09-19T15:39:59;3.78;;;2.00;;
9409;SDS011;4744;52.576;13.568;2023-09-19T15:42:26;2.55;;;1.67;;
9409;SDS011;4744;52.576;13.568;2023-09-19T15:44:53;3.10;;;1.90;;
9409;SDS011;4744;52.576;13.568;2023-09-19T15:47:20;2.38;;;1.77;;